Terminal Aerodrome Forecast
Issued by NWS

Home | Current Version | Previous Version | Text Only | Print | Product List | Glossary On
Versions: 1 2 3 4 5 6 7 8 9 10 11 12 13 14 15 16 17 18 19 20 21 22 23 24 25 26 27 28 29
000
FTUS41 KCTP 061804 RRA
TAFJST
TAF
KJST 061804Z 0618/0718 13012G19KT 4SM -FZRAPL BR BKN010 OVC014
     FM062100 14010G20KT 3SM -RA BR OVC007
     FM070900 25006KT 4SM BR OVC007
     FM071200 27010KT 4SM BR OVC015
     FM071500 28008KT P6SM OVC025=

USA.gov is the U.S. government's official web portal to all federal, state and local government web resources and services.